Home   Weather   Russia   Syktyvkar   Past weeks
Flag for Russia

Past Weather in Syktyvkar, Russia — Yesterday and Last 2 Weeks

Currently: 57 °F. Passing clouds. (Weather station: Syktyvkar Airport, Russia). See more current weather

Past Weather in Syktyvkar — Graph

°F

Syktyvkar Temperature Yesterday

Maximum temperature yesterday: 70 °F (at 12:30 pm)
Minimum temperature yesterday: 52 °F (at 1:00 am)
Average temperature yesterday: 61 °F

High & Low Weather Summary for the Past Weeks

 TemperatureHumidityPressure
High81 °F (Jul 15, 1:00 pm)100% (Jul 13, 12:00 am)30.21 "Hg (Jul 13, 12:00 am)
Low43 °F (Jul 13, 2:00 am)36% (Jul 22, 3:00 pm)29.77 "Hg (Jul 19, 12:30 pm)
Average65 °F73%29.99 "Hg
* Reported Jul 9 8:00 pm — Jul 24 8:30 pm, Syktyvkar. Weather by CustomWeather, © 2024

Note: Actual official high and low records may vary slightly from our data, if they occured in-between our weather recording intervals... More about our weather records

Syktyvkar Weather History for the Previous 24 Hours

Scroll right to see more
 ConditionsComfort  
Time TempWeatherWind HumidityBarometerVisibility
8:30 pm
Wed, Jul 24
59 °FScattered clouds.3 mph88%29.95 "HgN/A
8:00 pm61 °FScattered clouds.3 mph83%29.95 "HgN/A
7:30 pm61 °FPassing clouds.3 mph83%29.95 "HgN/A
7:00 pm61 °FPassing clouds.3 mph83%29.95 "HgN/A
6:00 pm61 °FPassing clouds.1 mph83%29.95 "HgN/A
5:30 pm59 °FSprinkles. Partly sunny.3 mph88%29.95 "HgN/A
5:00 pm61 °FScattered clouds.1 mph83%29.95 "HgN/A
4:30 pm63 °FSprinkles. Partly sunny.10 mph68%29.95 "Hg6 mi
4:00 pm66 °FScattered clouds.8 mph60%29.92 "HgN/A
3:30 pm66 °FPassing clouds.8 mph60%29.92 "HgN/A
3:00 pm66 °FPassing clouds.3 mph60%29.92 "HgN/A
2:30 pm64 °FPassing clouds.13 mph64%29.95 "HgN/A
2:00 pm68 °FPassing clouds.8 mph53%29.95 "HgN/A
1:30 pm66 °FPassing clouds.8 mph60%29.95 "HgN/A
1:00 pm66 °FPassing clouds.8 mph56%29.95 "HgN/A
12:30 pm66 °FPassing clouds.8 mph56%29.95 "HgN/A
12:00 pm66 °FPassing clouds.10 mph56%29.95 "HgN/A
11:30 am66 °FPassing clouds.8 mph56%29.95 "HgN/A
11:00 am66 °FScattered clouds.8 mph56%29.95 "HgN/A
10:30 am66 °FPartly sunny.10 mph56%29.95 "HgN/A
10:00 am63 °FPartly sunny.10 mph64%29.95 "HgN/A
9:30 am63 °FPartly sunny.10 mph68%29.95 "HgN/A
9:00 am63 °FPartly sunny.8 mph64%29.95 "HgN/A
8:30 am63 °FScattered clouds.8 mph68%29.95 "HgN/A
8:00 am61 °FPassing clouds.6 mph77%29.95 "HgN/A
7:30 am59 °FScattered clouds.6 mph82%29.95 "HgN/A
7:00 am57 °FScattered clouds.6 mph88%29.95 "HgN/A
6:30 am55 °FScattered clouds.3 mph94%29.95 "HgN/A
6:00 am55 °FPassing clouds.3 mph88%29.95 "HgN/A
5:30 am55 °FSunny.6 mph88%29.95 "Hg10 mi
5:00 am54 °FSunny.6 mph94%29.95 "Hg10 mi
4:30 am54 °FSunny.3 mph100%29.95 "Hg10 mi
4:00 am54 °FSunny.3 mph94%29.95 "Hg10 mi
3:30 am54 °FSunny.3 mph94%29.95 "Hg10 mi
3:00 am52 °FSunny.3 mph100%29.95 "Hg10 mi
2:30 am54 °FClear.6 mph100%29.95 "Hg10 mi
2:00 am54 °FClear.3 mph100%29.95 "Hg10 mi
1:30 am55 °FClear.6 mph94%29.95 "Hg10 mi
1:00 am55 °FClear.3 mph94%29.95 "Hg10 mi
12:30 am55 °FClear.3 mph94%29.95 "Hg10 mi
12:00 am55 °FClear.3 mph94%29.95 "Hg10 mi
11:30 pm
Tue, Jul 23
55 °FPassing clouds.3 mph94%29.95 "HgN/A
11:00 pm57 °FPassing clouds.6 mph88%29.95 "HgN/A
10:30 pm59 °FPassing clouds.3 mph88%29.92 "HgN/A
10:00 pm59 °FPassing clouds.6 mph82%29.92 "HgN/A
9:30 pm61 °FPassing clouds.6 mph83%29.92 "HgN/A
9:00 pm63 °FPassing clouds.1 mph77%29.92 "HgN/A
Weather by CustomWeather, © 2024

See weather overview